createdAt,value
2018-04-13T13:51:52.307Z,73.13
2018-04-13T13:52:52.134Z,78.75
2018-04-13T13:53:51.996Z,78.75
2018-04-13T14:14:31.525Z,84.38
2018-04-13T14:15:31.332Z,90.00
2018-04-13T14:16:31.296Z,95.63
2018-04-13T14:17:31.149Z,101.25
2018-04-13T14:18:31.108Z,112.50
2018-04-13T14:19:31.014Z,112.50
2018-04-13T14:20:31.022Z,106.88
2018-04-13T14:21:31.235Z,101.25
2018-04-13T14:22:30.942Z,95.63
2018-04-13T14:23:30.910Z,95.63
2018-04-13T14:26:15.409Z,112.50
2018-04-13T14:27:15.317Z,112.50
2018-04-13T14:28:15.631Z,106.88
2018-04-13T14:29:15.288Z,101.25
2018-04-13T14:30:15.251Z,101.25
2018-04-13T14:31:15.205Z,106.88
2018-04-13T14:32:15.110Z,118.13
2018-04-13T14:33:15.121Z,129.38
2018-04-13T14:34:15.086Z,129.38
2018-04-13T14:35:15.291Z,123.75
2018-04-13T14:36:14.998Z,118.13
2018-04-13T14:37:14.920Z,112.50
2018-04-13T14:38:14.921Z,106.88
2018-04-13T14:39:14.874Z,112.50
2018-04-13T14:40:14.783Z,118.13
2018-04-13T14:41:14.798Z,123.75
2018-04-13T14:42:15.005Z,123.75
2018-04-13T14:43:14.710Z,118.13
2018-04-13T14:44:14.670Z,112.50
2018-04-13T14:45:14.577Z,112.50
2018-04-13T14:46:14.588Z,112.50
2018-04-13T14:47:14.495Z,118.13
2018-04-13T14:48:14.610Z,129.38
2018-04-13T14:49:14.817Z,146.25
2018-04-13T14:50:14.371Z,163.13
2018-04-13T14:51:14.379Z,185.63
2018-04-13T14:52:14.337Z,213.75
2018-04-13T14:53:14.296Z,247.50
2018-04-13T14:54:14.261Z,275.63
2018-04-13T14:55:14.163Z,286.88
2018-04-13T14:56:14.522Z,292.50
2018-04-13T14:57:14.134Z,292.50
2018-04-13T14:58:14.091Z,298.13
2018-04-13T14:59:14.101Z,298.13
2018-04-13T15:00:13.958Z,309.38
2018-04-13T15:01:14.067Z,315.00
2018-04-13T15:02:14.233Z,320.63
2018-04-13T15:03:13.885Z,315.00
2018-04-13T15:04:13.848Z,309.38
2018-04-13T15:05:13.755Z,298.13
2018-04-13T15:06:13.764Z,309.38
2018-04-13T15:07:13.726Z,348.75
2018-04-13T15:08:14.034Z,388.13
2018-04-13T15:09:13.640Z,410.63
2018-04-13T15:10:13.557Z,433.13
2018-04-13T15:11:13.616Z,444.38
2018-04-13T15:12:13.560Z,450.00
2018-04-13T15:13:13.478Z,444.38
2018-04-13T15:14:13.777Z,433.13
2018-04-13T15:15:13.345Z,416.25
2018-04-13T15:16:13.356Z,399.38
2018-04-13T15:17:13.316Z,393.75
2018-04-13T15:18:13.274Z,393.75
2018-04-13T15:19:13.335Z,405.00
2018-04-13T15:20:13.447Z,416.25
2018-04-13T15:21:13.153Z,410.63
2018-04-13T15:22:13.212Z,405.00
2018-04-13T15:23:13.071Z,399.38
2018-04-13T15:24:13.032Z,388.13
2018-04-13T15:25:12.941Z,354.38
2018-04-13T15:26:13.302Z,326.25
2018-04-13T15:27:12.911Z,298.13
2018-04-13T15:28:12.820Z,275.63
2018-04-13T15:29:12.829Z,253.13
2018-04-13T15:30:12.738Z,236.25
2018-04-13T15:31:12.752Z,241.88
2018-04-13T15:32:12.957Z,241.88
2018-04-13T15:33:12.680Z,236.25
2018-04-13T15:34:12.651Z,225.00
2018-04-13T15:35:12.537Z,219.38
2018-04-13T15:36:12.548Z,213.75
2018-04-13T15:37:12.507Z,202.50
2018-04-13T15:38:12.518Z,191.25
2018-04-13T15:39:12.677Z,191.25
2018-04-13T15:40:12.352Z,202.50
2018-04-13T15:41:12.447Z,241.88
2018-04-13T15:42:12.309Z,270.00
2018-04-13T15:43:12.266Z,298.13
2018-04-13T15:44:12.223Z,298.13
2018-04-13T15:45:12.145Z,281.25
2018-04-13T15:46:12.401Z,270.00
2018-04-13T15:47:12.105Z,270.00
2018-04-13T15:48:12.014Z,270.00
2018-04-13T15:49:12.030Z,258.75
2018-04-13T15:50:11.935Z,253.13
2018-04-13T15:51:12.002Z,241.88
2018-04-13T15:52:11.952Z,225.00
2018-04-13T15:53:12.112Z,219.38
2018-04-13T15:54:11.822Z,208.13
2018-04-13T15:55:11.731Z,196.88
2018-04-13T15:56:11.744Z,191.25
2018-04-13T15:57:11.700Z,180.00
2018-04-13T15:58:11.610Z,174.38
2018-04-13T15:59:11.668Z,168.75
2018-04-13T16:00:11.828Z,163.13
2018-04-13T16:01:11.543Z,157.50
2018-04-13T16:02:11.501Z,157.50
2018-04-13T16:03:11.411Z,157.50
2018-04-13T16:04:11.415Z,163.13
2018-04-13T16:05:11.381Z,174.38
2018-04-13T16:06:11.337Z,196.88
2018-04-13T16:07:11.644Z,219.38
2018-04-13T16:08:11.205Z,247.50
2018-04-13T16:09:11.216Z,264.38
2018-04-13T16:10:11.176Z,281.25
2018-04-13T16:11:11.132Z,281.25
2018-04-13T16:12:11.114Z,281.25
2018-04-13T16:13:11.000Z,281.25
2018-04-13T16:14:11.314Z,281.25
2018-04-13T16:15:10.975Z,281.25
2018-04-13T16:16:10.930Z,281.25
2018-04-13T16:17:10.892Z,275.63
2018-04-13T16:18:10.800Z,275.63
2018-04-13T16:19:10.859Z,270.00
2018-04-13T16:20:11.174Z,258.75
2018-04-13T16:21:10.735Z,253.13
2018-04-13T16:22:10.699Z,247.50
2018-04-13T16:23:10.597Z,241.88
2018-04-13T16:24:10.608Z,236.25
2018-04-13T16:25:10.617Z,230.63
2018-04-13T16:26:10.829Z,230.63
2018-04-13T16:27:10.486Z,230.63
2018-04-13T16:28:10.399Z,230.63
2018-04-13T16:29:10.356Z,230.63
2018-04-13T16:30:10.418Z,225.00
2018-04-13T16:31:10.282Z,225.00
2018-04-13T16:32:10.533Z,225.00
2018-04-13T16:33:10.197Z,213.75
2018-04-13T16:34:10.213Z,208.13
2018-04-13T16:35:10.166Z,202.50
2018-04-13T16:36:10.074Z,202.50
2018-04-13T16:37:10.133Z,196.88
2018-04-13T16:38:10.291Z,202.50
2018-04-13T16:39:10.000Z,208.13
2018-04-13T16:40:09.961Z,213.75
2018-04-13T16:41:09.869Z,225.00
2018-04-13T16:42:09.885Z,219.38
2018-04-13T16:43:09.803Z,213.75
2018-04-13T16:44:10.056Z,202.50
2018-04-13T16:45:09.759Z,185.63
2018-04-13T16:46:09.723Z,146.25
2018-04-13T16:47:09.681Z,112.50
2018-04-13T16:48:09.588Z,106.88
2018-04-13T16:49:09.600Z,101.25
2018-04-13T16:50:09.698Z,84.38
2018-04-13T16:51:09.872Z,73.13
2018-04-13T16:52:09.577Z,78.75
2018-04-13T16:53:09.385Z,78.75
2018-04-13T16:54:09.396Z,78.75
2018-04-13T16:55:09.356Z,78.75
2018-04-13T16:56:09.320Z,67.50
